Amado, Arizona
Current Conditions -  °F | °C
As of 12:54 PM on Friday 31 Oct 2014 (Local Time) from KOLS Reporting Station
Clear Clear  
Wind Chill: 83°   Ceiling: Unl
Heat Index: 83°   Visibility: 10mi
Dew Point: 45°   Wind: 9mph
Humidity: 26%   Direction: 170°S
Pressure: 30.02"   Gusts: NA
Location:  31.71°N, 111.07°W
Report Text: KOLS 311954Z AUTO 17008KT 10SM CLR 28/07 A3002 RMK AO2 SLP107 T02830072
Loading
Personal Weather Stations






























Interactive Weather Map New forecast layout! Learn more

10-Day Weather Forecast

Advertisements
Track Severe Weather on mobile